createdAt,value
2018-06-08T00:01:31.473Z,97.30
2018-06-08T00:06:37.604Z,98.10
2018-06-08T00:11:47.873Z,98.10
2018-06-08T00:16:53.313Z,97.90
2018-06-08T00:21:58.048Z,97.40
2018-06-08T00:27:02.945Z,96.90
2018-06-08T00:32:07.906Z,98.00
2018-06-08T00:37:12.843Z,98.60
2018-06-08T00:42:24.155Z,99.60
2018-06-08T00:47:29.200Z,99.60
2018-06-08T00:52:41.157Z,99.60
2018-06-08T00:57:46.115Z,99.60
2018-06-08T01:02:51.151Z,99.60
2018-06-08T01:08:15.487Z,99.60
2018-06-08T01:13:21.091Z,99.60
2018-06-08T01:18:36.241Z,99.60
2018-06-08T01:29:15.862Z,99.60
2018-06-08T01:34:22.322Z,99.60
2018-06-08T01:39:27.278Z,99.60
2018-06-08T01:44:35.121Z,99.60
2018-06-08T01:49:39.727Z,99.60
2018-06-08T01:54:46.245Z,99.60
2018-06-08T01:59:53.541Z,99.60
2018-06-08T02:04:58.483Z,99.60
2018-06-08T02:10:04.876Z,99.60
2018-06-08T02:15:09.911Z,99.60
2018-06-08T02:20:16.647Z,99.60
2018-06-08T02:30:55.893Z,99.60
2018-06-08T02:36:01.103Z,99.60
2018-06-08T02:41:07.774Z,99.60
2018-06-08T02:46:12.452Z,99.60
2018-06-08T02:51:17.312Z,99.60
2018-06-08T02:56:22.165Z,99.60
2018-06-08T03:01:26.834Z,99.60
2018-06-08T03:06:31.533Z,99.60
2018-06-08T03:11:36.226Z,99.60
2018-06-08T03:16:40.850Z,99.60
2018-06-08T03:21:45.575Z,99.60
2018-06-08T03:31:54.323Z,99.60
2018-06-08T03:36:59.058Z,99.60
2018-06-08T03:42:03.670Z,99.60
2018-06-08T03:47:08.450Z,99.60
2018-06-08T03:52:13.049Z,99.60
2018-06-08T03:57:17.789Z,99.60
2018-06-08T04:02:23.099Z,99.60
2018-06-08T04:07:27.780Z,99.60
2018-06-08T04:12:32.552Z,99.60
2018-06-08T04:17:39.619Z,99.60
2018-06-08T04:22:44.607Z,99.60
2018-06-08T04:27:49.377Z,99.60
2018-06-08T04:32:54.879Z,99.60
2018-06-08T04:37:59.600Z,99.60
2018-06-08T04:43:04.440Z,99.30
2018-06-08T04:48:09.510Z,98.70
2018-06-08T04:53:14.356Z,98.00
2018-06-08T04:58:18.997Z,97.70
2018-06-08T05:03:24.039Z,97.40
2018-06-08T05:08:28.893Z,97.60
2018-06-08T05:13:34.018Z,97.50
2018-06-08T05:18:38.732Z,98.00
2018-06-08T05:23:43.516Z,97.30
2018-06-08T05:28:48.352Z,97.70
2018-06-08T05:33:52.982Z,98.20
2018-06-08T05:38:58.119Z,98.30
2018-06-08T05:44:02.881Z,99.00
2018-06-08T05:49:07.619Z,98.80
2018-06-08T05:54:12.502Z,98.20
2018-06-08T05:59:17.516Z,98.00
2018-06-08T06:04:22.106Z,97.10
2018-06-08T06:09:27.077Z,96.30
2018-06-08T06:14:31.834Z,94.60
2018-06-08T06:19:36.608Z,94.10
2018-06-08T06:24:41.301Z,93.90
2018-06-08T06:29:46.016Z,93.90
2018-06-08T06:34:50.997Z,94.30
2018-06-08T06:39:56.719Z,94.30
2018-06-08T06:45:01.689Z,93.70
2018-06-08T06:50:06.707Z,93.50
2018-06-08T06:55:11.983Z,93.30
2018-06-08T07:00:16.817Z,93.40
2018-06-08T07:05:21.584Z,92.90
2018-06-08T07:10:26.427Z,91.10
2018-06-08T07:15:31.798Z,91.40
2018-06-08T07:20:37.113Z,91.90
2018-06-08T07:25:42.192Z,92.20
2018-06-08T07:35:51.533Z,92.80
2018-06-08T07:40:56.426Z,91.40
2018-06-08T07:46:01.575Z,91.30
2018-06-08T07:51:06.518Z,91.00
2018-06-08T07:56:11.442Z,91.60
2018-06-08T08:01:16.287Z,92.30
2018-06-08T08:06:20.997Z,91.30
2018-06-08T08:11:26.022Z,91.00
2018-06-08T08:16:30.759Z,91.60
2018-06-08T08:21:36.022Z,92.10
2018-06-08T08:26:40.814Z,92.60
2018-06-08T08:31:45.682Z,92.10
2018-06-08T08:36:50.531Z,93.30
2018-06-08T08:41:55.287Z,91.80
2018-06-08T08:47:00.097Z,90.90
2018-06-08T08:52:04.921Z,88.80
2018-06-08T08:57:10.031Z,89.50
2018-06-08T09:02:14.705Z,89.70
2018-06-08T09:07:19.470Z,90.30
2018-06-08T09:12:24.808Z,89.70
2018-06-08T09:17:29.858Z,89.00
2018-06-08T09:22:34.795Z,86.90
2018-06-08T09:32:43.842Z,88.00
2018-06-08T09:37:48.791Z,87.10
2018-06-08T09:42:53.646Z,88.10
2018-06-08T09:47:58.274Z,87.60
2018-06-08T09:53:02.997Z,86.00
2018-06-08T09:58:07.864Z,83.50
2018-06-08T10:03:13.052Z,83.70
2018-06-08T10:08:18.047Z,83.00
2018-06-08T10:13:23.069Z,84.50
2018-06-08T10:18:28.407Z,84.40
2018-06-08T10:23:33.091Z,83.90
2018-06-08T10:28:38.018Z,83.60
2018-06-08T10:33:42.740Z,83.10
2018-06-08T10:38:47.561Z,84.80
2018-06-08T10:43:52.829Z,84.30
2018-06-08T10:54:02.103Z,80.40
2018-06-08T10:59:06.724Z,80.60
2018-06-08T11:09:15.758Z,79.80
2018-06-08T11:14:20.722Z,81.00
2018-06-08T11:19:25.566Z,81.20
2018-06-08T11:24:30.194Z,80.70
2018-06-08T11:29:35.190Z,80.60
2018-06-08T11:34:39.981Z,79.30
2018-06-08T11:44:48.923Z,79.90
2018-06-08T11:49:53.690Z,81.10
2018-06-08T11:54:58.307Z,80.90
2018-06-08T12:05:07.734Z,76.00
2018-06-08T12:10:12.910Z,73.00
2018-06-08T12:15:17.872Z,69.20
2018-06-08T12:20:22.821Z,69.60
2018-06-08T12:30:32.296Z,65.10
2018-06-08T12:35:36.974Z,65.90
2018-06-08T12:40:41.614Z,67.00
2018-06-08T12:45:46.254Z,67.00
2018-06-08T12:50:51.113Z,66.90
2018-06-08T12:55:55.752Z,65.20
2018-06-08T13:01:00.500Z,64.40
2018-06-08T13:06:05.222Z,63.30
2018-06-08T13:11:10.177Z,65.40
2018-06-08T13:16:14.992Z,64.50
2018-06-08T13:21:19.772Z,62.50
2018-06-08T13:26:24.560Z,64.00
2018-06-08T13:31:29.214Z,62.40
2018-06-08T13:36:34.492Z,64.00
2018-06-08T13:41:39.320Z,68.50
2018-06-08T13:47:50.282Z,74.00
2018-06-08T13:52:55.226Z,77.60
2018-06-08T13:58:00.156Z,78.50
2018-06-08T14:03:05.103Z,78.90
2018-06-08T14:08:09.697Z,78.50
2018-06-08T14:13:15.332Z,78.50
2018-06-08T14:18:20.244Z,77.70
2018-06-08T14:23:25.253Z,71.20
2018-06-08T14:28:29.969Z,70.90
2018-06-08T14:33:34.758Z,74.70
2018-06-08T14:38:39.507Z,77.00
2018-06-08T14:43:44.198Z,82.70
2018-06-08T14:48:49.754Z,93.00
2018-06-08T14:53:54.956Z,97.30
2018-06-08T14:58:59.909Z,97.20
2018-06-08T15:04:04.822Z,99.40
2018-06-08T15:09:09.743Z,98.60
2018-06-08T15:14:14.428Z,99.60
2018-06-08T15:19:19.194Z,99.60
2018-06-08T15:24:25.523Z,99.60
2018-06-08T15:29:31.477Z,99.60
2018-06-08T15:34:36.279Z,99.60
2018-06-08T15:39:40.950Z,99.60
2018-06-08T15:44:45.864Z,99.60
2018-06-08T15:49:50.468Z,99.60
2018-06-08T15:54:55.212Z,99.60
2018-06-08T16:00:00.100Z,99.60
2018-06-08T16:05:05.012Z,99.60
2018-06-08T16:10:09.834Z,99.60
2018-06-08T16:15:14.653Z,99.60
2018-06-08T16:20:20.077Z,99.60
2018-06-08T16:25:25.167Z,99.60
2018-06-08T16:30:30.140Z,99.60
2018-06-08T16:35:35.169Z,99.60
2018-06-08T16:40:39.902Z,99.60
2018-06-08T16:45:44.567Z,99.60
2018-06-08T16:50:49.787Z,99.60
2018-06-08T16:55:54.666Z,99.60
2018-06-08T17:00:59.485Z,99.60
2018-06-08T17:06:04.425Z,99.60
2018-06-08T17:11:09.138Z,99.60
2018-06-08T17:16:14.338Z,99.60
2018-06-08T17:21:19.438Z,99.60
2018-06-08T17:26:24.290Z,99.60
2018-06-08T17:31:29.800Z,99.60
2018-06-08T17:36:34.470Z,99.60
2018-06-08T17:41:40.481Z,99.60
2018-06-08T17:46:45.360Z,99.60
2018-06-08T17:51:50.067Z,99.60
2018-06-08T17:56:54.939Z,99.60
2018-06-08T18:01:59.958Z,99.60
2018-06-08T18:07:04.807Z,99.60
2018-06-08T18:12:09.825Z,99.60
2018-06-08T18:17:14.622Z,99.60
2018-06-08T18:22:19.732Z,99.60
2018-06-08T18:27:24.789Z,99.60
2018-06-08T18:37:34.238Z,99.60
2018-06-08T18:42:39.084Z,99.60
2018-06-08T18:47:43.740Z,99.60
2018-06-08T18:52:48.471Z,99.60
2018-06-08T18:57:53.694Z,99.60
2018-06-08T19:02:58.561Z,99.60
2018-06-08T19:08:03.623Z,99.60
2018-06-08T19:13:08.453Z,99.60
2018-06-08T19:18:14.737Z,99.60
2018-06-08T19:23:19.424Z,99.60
2018-06-08T19:28:24.270Z,99.60
2018-06-08T19:38:33.022Z,99.60
2018-06-08T19:43:38.169Z,99.60
2018-06-08T19:48:42.909Z,99.60
2018-06-08T19:53:47.596Z,99.60
2018-06-08T19:58:52.692Z,99.60
2018-06-08T20:03:58.380Z,99.60
2018-06-08T20:09:03.291Z,99.60
2018-06-08T20:14:08.006Z,99.60
2018-06-08T20:19:12.664Z,99.60
2018-06-08T20:24:17.909Z,99.60
2018-06-08T20:29:23.184Z,99.60
2018-06-08T20:34:28.322Z,99.60
2018-06-08T20:39:32.995Z,99.60
2018-06-08T20:44:37.989Z,99.60
2018-06-08T20:49:42.835Z,99.60
2018-06-08T20:54:47.572Z,99.60
2018-06-08T20:59:52.604Z,99.60
2018-06-08T21:04:57.333Z,99.60
2018-06-08T21:10:01.981Z,99.60
2018-06-08T21:15:07.084Z,99.60
2018-06-08T21:20:13.201Z,99.60
2018-06-08T21:25:17.912Z,99.60
2018-06-08T21:30:22.543Z,99.60
2018-06-08T21:35:27.470Z,99.60
2018-06-08T21:40:32.051Z,99.60
2018-06-08T21:45:36.779Z,99.60
2018-06-08T21:50:41.559Z,99.60
2018-06-08T21:55:47.328Z,99.60
2018-06-08T22:00:52.160Z,99.60
2018-06-08T22:05:57.265Z,99.60
2018-06-08T22:11:02.450Z,99.60
2018-06-08T22:16:07.182Z,99.60
2018-06-08T22:21:12.089Z,99.60
2018-06-08T22:26:16.998Z,99.60
2018-06-08T22:31:22.381Z,99.60
2018-06-08T22:36:27.197Z,99.60
2018-06-08T22:46:36.243Z,99.60
2018-06-08T22:51:41.093Z,99.60
2018-06-08T22:56:45.948Z,99.60
2018-06-08T23:01:50.526Z,99.60
2018-06-08T23:06:55.489Z,99.60
2018-06-08T23:12:00.236Z,99.60
2018-06-08T23:17:05.008Z,99.60
2018-06-08T23:22:10.191Z,99.60
2018-06-08T23:27:15.137Z,99.60
2018-06-08T23:32:19.715Z,99.60
2018-06-08T23:37:24.534Z,99.60
2018-06-08T23:42:29.475Z,99.60
2018-06-08T23:47:34.127Z,99.60
2018-06-08T23:52:38.931Z,99.60
2018-06-08T23:57:43.571Z,99.60
